sensor_id;sensor_type;location;lat;lon;timestamp;temperature;humidity
52965;DHT22;42923;53.220;6.528;2022-08-18T00:04:27;18.00;99.90
52965;DHT22;42923;53.220;6.528;2022-08-18T00:06:53;18.10;99.90
52965;DHT22;42923;53.220;6.528;2022-08-18T00:09:19;18.10;99.90
52965;DHT22;42923;53.220;6.528;2022-08-18T00:11:44;18.10;99.90
52965;DHT22;42923;53.220;6.528;2022-08-18T00:14:16;18.00;99.90
52965;DHT22;42923;53.220;6.528;2022-08-18T00:16:42;18.00;99.90
52965;DHT22;42923;53.220;6.528;2022-08-18T00:19:08;17.90;99.90
52965;DHT22;42923;53.220;6.528;2022-08-18T00:21:34;17.90;99.90
52965;DHT22;42923;53.220;6.528;2022-08-18T00:24:00;17.90;99.90
52965;DHT22;42923;53.220;6.528;2022-08-18T00:26:25;17.90;99.90
52965;DHT22;42923;53.220;6.528;2022-08-18T00:28:51;17.90;99.90
52965;DHT22;42923;53.220;6.528;2022-08-18T00:31:17;17.90;99.90
52965;DHT22;42923;53.220;6.528;2022-08-18T00:33:42;17.90;99.90
52965;DHT22;42923;53.220;6.528;2022-08-18T00:36:10;17.90;99.90
52965;DHT22;42923;53.220;6.528;2022-08-18T00:38:36;17.80;99.90
52965;DHT22;42923;53.220;6.528;2022-08-18T00:41:03;17.90;99.90
52965;DHT22;42923;53.220;6.528;2022-08-18T00:46:00;17.80;99.90
52965;DHT22;42923;53.220;6.528;2022-08-18T00:48:26;17.80;99.90
52965;DHT22;42923;53.220;6.528;2022-08-18T00:50:58;17.80;99.90
52965;DHT22;42923;53.220;6.528;2022-08-18T00:53:46;17.80;99.90
52965;DHT22;42923;53.220;6.528;2022-08-18T00:56:21;17.80;99.90
52965;DHT22;42923;53.220;6.528;2022-08-18T00:59:00;17.80;99.90
52965;DHT22;42923;53.220;6.528;2022-08-18T01:01:30;17.80;99.90
52965;DHT22;42923;53.220;6.528;2022-08-18T01:04:02;17.80;99.90
52965;DHT22;42923;53.220;6.528;2022-08-18T01:06:36;17.80;99.90
52965;DHT22;42923;53.220;6.528;2022-08-18T01:09:04;17.90;99.90
52965;DHT22;42923;53.220;6.528;2022-08-18T01:11:31;17.90;99.90
52965;DHT22;42923;53.220;6.528;2022-08-18T01:13:57;17.90;99.90
52965;DHT22;42923;53.220;6.528;2022-08-18T01:16:23;17.90;99.90
52965;DHT22;42923;53.220;6.528;2022-08-18T01:19:08;17.90;99.90
52965;DHT22;42923;53.220;6.528;2022-08-18T01:21:59;17.80;99.90
52965;DHT22;42923;53.220;6.528;2022-08-18T01:24:30;17.90;99.90
52965;DHT22;42923;53.220;6.528;2022-08-18T01:27:17;17.80;99.90
52965;DHT22;42923;53.220;6.528;2022-08-18T01:29:48;17.90;99.90
52965;DHT22;42923;53.220;6.528;2022-08-18T01:32:22;17.90;99.90
52965;DHT22;42923;53.220;6.528;2022-08-18T01:34:49;18.00;99.90
52965;DHT22;42923;53.220;6.528;2022-08-18T01:37:19;18.00;99.90
52965;DHT22;42923;53.220;6.528;2022-08-18T01:39:45;18.00;99.90
52965;DHT22;42923;53.220;6.528;2022-08-18T01:42:13;18.00;99.90
52965;DHT22;42923;53.220;6.528;2022-08-18T01:44:42;18.00;99.90
52965;DHT22;42923;53.220;6.528;2022-08-18T01:47:09;18.00;99.90
52965;DHT22;42923;53.220;6.528;2022-08-18T01:49:37;18.00;99.90
52965;DHT22;42923;53.220;6.528;2022-08-18T01:52:03;18.00;99.90
52965;DHT22;42923;53.220;6.528;2022-08-18T01:54:31;18.00;99.90
52965;DHT22;42923;53.220;6.528;2022-08-18T01:56:58;18.00;99.90
52965;DHT22;42923;53.220;6.528;2022-08-18T01:59:24;18.00;99.90
52965;DHT22;42923;53.220;6.528;2022-08-18T02:01:50;18.00;99.90
52965;DHT22;42923;53.220;6.528;2022-08-18T02:04:17;18.10;99.90
52965;DHT22;42923;53.220;6.528;2022-08-18T02:06:43;18.00;99.90
52965;DHT22;42923;53.220;6.528;2022-08-18T02:09:08;18.10;99.90
52965;DHT22;42923;53.220;6.528;2022-08-18T02:11:34;18.00;99.90
52965;DHT22;42923;53.220;6.528;2022-08-18T02:14:00;18.10;99.90
52965;DHT22;42923;53.220;6.528;2022-08-18T02:16:26;18.10;99.90
52965;DHT22;42923;53.220;6.528;2022-08-18T02:18:51;18.10;99.90
52965;DHT22;42923;53.220;6.528;2022-08-18T02:21:19;18.10;99.90
52965;DHT22;42923;53.220;6.528;2022-08-18T02:23:46;18.10;99.90
52965;DHT22;42923;53.220;6.528;2022-08-18T02:26:15;18.20;99.90
52965;DHT22;42923;53.220;6.528;2022-08-18T02:28:42;18.10;99.90
52965;DHT22;42923;53.220;6.528;2022-08-18T02:31:14;18.10;99.90
52965;DHT22;42923;53.220;6.528;2022-08-18T02:33:41;18.20;99.90
52965;DHT22;42923;53.220;6.528;2022-08-18T02:36:07;18.10;99.90
52965;DHT22;42923;53.220;6.528;2022-08-18T02:38:34;18.20;99.90
52965;DHT22;42923;53.220;6.528;2022-08-18T02:41:01;18.10;99.90
52965;DHT22;42923;53.220;6.528;2022-08-18T02:43:27;18.20;99.90
52965;DHT22;42923;53.220;6.528;2022-08-18T02:45:53;18.20;99.90
52965;DHT22;42923;53.220;6.528;2022-08-18T02:48:19;18.20;99.90
52965;DHT22;42923;53.220;6.528;2022-08-18T02:51:11;18.20;99.90
52965;DHT22;42923;53.220;6.528;2022-08-18T02:53:39;18.20;99.90
52965;DHT22;42923;53.220;6.528;2022-08-18T02:56:19;18.20;99.90
52965;DHT22;42923;53.220;6.528;2022-08-18T02:58:50;18.10;99.90
52965;DHT22;42923;53.220;6.528;2022-08-18T03:01:22;18.20;99.90
52965;DHT22;42923;53.220;6.528;2022-08-18T03:03:49;18.20;99.90
52965;DHT22;42923;53.220;6.528;2022-08-18T03:06:16;18.10;99.90
52965;DHT22;42923;53.220;6.528;2022-08-18T03:08:42;18.10;99.90
52965;DHT22;42923;53.220;6.528;2022-08-18T03:11:14;18.20;99.90
52965;DHT22;42923;53.220;6.528;2022-08-18T03:13:40;18.20;99.90
52965;DHT22;42923;53.220;6.528;2022-08-18T03:16:06;18.20;99.90
52965;DHT22;42923;53.220;6.528;2022-08-18T03:18:32;18.20;99.90
52965;DHT22;42923;53.220;6.528;2022-08-18T03:21:05;18.20;99.90
52965;DHT22;42923;53.220;6.528;2022-08-18T03:23:31;18.20;99.90
52965;DHT22;42923;53.220;6.528;2022-08-18T03:25:56;18.20;99.90
52965;DHT22;42923;53.220;6.528;2022-08-18T03:28:22;18.20;99.90
52965;DHT22;42923;53.220;6.528;2022-08-18T03:30:48;18.20;99.90
52965;DHT22;42923;53.220;6.528;2022-08-18T03:33:14;18.20;99.90
52965;DHT22;42923;53.220;6.528;2022-08-18T03:35:39;18.20;99.90
52965;DHT22;42923;53.220;6.528;2022-08-18T03:38:06;18.20;99.90
52965;DHT22;42923;53.220;6.528;2022-08-18T03:40:31;18.20;99.90
52965;DHT22;42923;53.220;6.528;2022-08-18T03:42:57;18.30;99.90
52965;DHT22;42923;53.220;6.528;2022-08-18T03:45:23;18.20;99.90
52965;DHT22;42923;53.220;6.528;2022-08-18T03:47:52;18.20;99.90
52965;DHT22;42923;53.220;6.528;2022-08-18T03:50:19;18.20;99.90
52965;DHT22;42923;53.220;6.528;2022-08-18T03:52:45;18.20;99.90
52965;DHT22;42923;53.220;6.528;2022-08-18T03:55:14;18.20;99.90
52965;DHT22;42923;53.220;6.528;2022-08-18T03:57:41;18.20;99.90
52965;DHT22;42923;53.220;6.528;2022-08-18T04:00:08;18.20;99.90
52965;DHT22;42923;53.220;6.528;2022-08-18T04:02:34;18.20;99.90
52965;DHT22;42923;53.220;6.528;2022-08-18T04:05:00;18.20;99.90
52965;DHT22;42923;53.220;6.528;2022-08-18T04:07:26;18.20;99.90
52965;DHT22;42923;53.220;6.528;2022-08-18T04:09:51;18.20;99.90
52965;DHT22;42923;53.220;6.528;2022-08-18T04:12:17;18.20;99.90
52965;DHT22;42923;53.220;6.528;2022-08-18T04:14:45;18.20;99.90
52965;DHT22;42923;53.220;6.528;2022-08-18T04:17:12;18.20;99.90
52965;DHT22;42923;53.220;6.528;2022-08-18T04:19:38;18.20;99.90
52965;DHT22;42923;53.220;6.528;2022-08-18T04:22:04;18.20;99.90
52965;DHT22;42923;53.220;6.528;2022-08-18T04:24:31;18.20;99.90
52965;DHT22;42923;53.220;6.528;2022-08-18T04:26:58;18.20;99.90
52965;DHT22;42923;53.220;6.528;2022-08-18T04:29:26;18.20;99.90
52965;DHT22;42923;53.220;6.528;2022-08-18T04:31:52;18.20;99.90
52965;DHT22;42923;53.220;6.528;2022-08-18T04:34:19;18.20;99.90
52965;DHT22;42923;53.220;6.528;2022-08-18T04:36:47;18.10;99.90
52965;DHT22;42923;53.220;6.528;2022-08-18T04:39:13;18.20;99.90
52965;DHT22;42923;53.220;6.528;2022-08-18T04:41:41;18.20;99.90
52965;DHT22;42923;53.220;6.528;2022-08-18T04:44:08;18.20;99.90
52965;DHT22;42923;53.220;6.528;2022-08-18T04:46:37;18.20;99.90
52965;DHT22;42923;53.220;6.528;2022-08-18T04:49:05;18.20;99.90
52965;DHT22;42923;53.220;6.528;2022-08-18T04:51:31;18.20;99.90
52965;DHT22;42923;53.220;6.528;2022-08-18T04:53:58;18.20;99.90
52965;DHT22;42923;53.220;6.528;2022-08-18T04:56:31;18.20;99.90
52965;DHT22;42923;53.220;6.528;2022-08-18T04:59:01;18.20;99.90
52965;DHT22;42923;53.220;6.528;2022-08-18T05:01:30;18.20;99.90
52965;DHT22;42923;53.220;6.528;2022-08-18T05:03:57;18.20;99.90
52965;DHT22;42923;53.220;6.528;2022-08-18T05:06:27;18.20;99.90
52965;DHT22;42923;53.220;6.528;2022-08-18T05:08:59;18.20;99.90
52965;DHT22;42923;53.220;6.528;2022-08-18T05:11:28;18.20;99.90
52965;DHT22;42923;53.220;6.528;2022-08-18T05:13:57;18.10;99.90
52965;DHT22;42923;53.220;6.528;2022-08-18T05:16:24;18.20;99.90
52965;DHT22;42923;53.220;6.528;2022-08-18T05:18:50;18.20;99.90
52965;DHT22;42923;53.220;6.528;2022-08-18T05:21:18;18.20;99.90
52965;DHT22;42923;53.220;6.528;2022-08-18T05:23:46;18.20;99.90
52965;DHT22;42923;53.220;6.528;2022-08-18T05:26:14;18.20;99.90
52965;DHT22;42923;53.220;6.528;2022-08-18T05:28:41;18.20;99.90
52965;DHT22;42923;53.220;6.528;2022-08-18T05:31:13;18.30;99.90
52965;DHT22;42923;53.220;6.528;2022-08-18T05:33:40;18.30;99.90
52965;DHT22;42923;53.220;6.528;2022-08-18T05:36:30;18.30;99.90
52965;DHT22;42923;53.220;6.528;2022-08-18T05:39:10;18.30;99.90
52965;DHT22;42923;53.220;6.528;2022-08-18T05:41:44;18.20;99.90
52965;DHT22;42923;53.220;6.528;2022-08-18T05:44:13;18.30;99.90
52965;DHT22;42923;53.220;6.528;2022-08-18T05:46:53;18.30;99.90
52965;DHT22;42923;53.220;6.528;2022-08-18T05:49:20;18.30;99.90
52965;DHT22;42923;53.220;6.528;2022-08-18T05:52:09;18.40;99.90
52965;DHT22;42923;53.220;6.528;2022-08-18T05:54:44;18.50;99.90
52965;DHT22;42923;53.220;6.528;2022-08-18T05:57:31;18.50;99.90
52965;DHT22;42923;53.220;6.528;2022-08-18T05:59:58;18.50;99.90
52965;DHT22;42923;53.220;6.528;2022-08-18T06:02:34;18.60;99.90
52965;DHT22;42923;53.220;6.528;2022-08-18T06:07:43;18.60;99.90
52965;DHT22;42923;53.220;6.528;2022-08-18T06:10:10;18.70;99.90
52965;DHT22;42923;53.220;6.528;2022-08-18T06:12:41;18.70;99.90
52965;DHT22;42923;53.220;6.528;2022-08-18T06:23:16;18.60;99.90
52965;DHT22;42923;53.220;6.528;2022-08-18T06:26:04;18.70;99.90
52965;DHT22;42923;53.220;6.528;2022-08-18T06:31:46;18.80;99.90
52965;DHT22;42923;53.220;6.528;2022-08-18T06:36:54;18.80;99.90
52965;DHT22;42923;53.220;6.528;2022-08-18T06:41:52;18.90;99.90
52965;DHT22;42923;53.220;6.528;2022-08-18T06:52:27;19.00;99.90
52965;DHT22;42923;53.220;6.528;2022-08-18T06:54:56;19.00;99.90
52965;DHT22;42923;53.220;6.528;2022-08-18T06:59:58;18.90;99.90
52965;DHT22;42923;53.220;6.528;2022-08-18T07:02:36;18.90;99.90
52965;DHT22;42923;53.220;6.528;2022-08-18T07:05:18;18.90;99.90
52965;DHT22;42923;53.220;6.528;2022-08-18T07:07:45;18.70;99.90
52965;DHT22;42923;53.220;6.528;2022-08-18T07:12:47;18.70;99.90
52965;DHT22;42923;53.220;6.528;2022-08-18T07:15:23;18.70;99.90
52965;DHT22;42923;53.220;6.528;2022-08-18T07:17:48;18.60;99.90
52965;DHT22;42923;53.220;6.528;2022-08-18T07:20:19;18.60;99.90
52965;DHT22;42923;53.220;6.528;2022-08-18T07:23:00;18.60;99.90
52965;DHT22;42923;53.220;6.528;2022-08-18T07:25:31;18.60;99.90
52965;DHT22;42923;53.220;6.528;2022-08-18T07:27:58;18.60;99.90
52965;DHT22;42923;53.220;6.528;2022-08-18T07:30:33;18.60;99.90
52965;DHT22;42923;53.220;6.528;2022-08-18T07:33:17;18.60;99.90
52965;DHT22;42923;53.220;6.528;2022-08-18T07:35:59;18.70;99.90
52965;DHT22;42923;53.220;6.528;2022-08-18T07:38:52;18.80;99.90
52965;DHT22;42923;53.220;6.528;2022-08-18T07:41:24;18.90;99.90
52965;DHT22;42923;53.220;6.528;2022-08-18T07:46:59;19.00;99.90
52965;DHT22;42923;53.220;6.528;2022-08-18T07:49:30;19.10;99.90
52965;DHT22;42923;53.220;6.528;2022-08-18T07:52:07;19.20;99.90
52965;DHT22;42923;53.220;6.528;2022-08-18T07:57:40;19.40;99.90
52965;DHT22;42923;53.220;6.528;2022-08-18T08:05:50;19.60;99.90
52965;DHT22;42923;53.220;6.528;2022-08-18T08:11:02;19.70;99.90
52965;DHT22;42923;53.220;6.528;2022-08-18T08:13:40;19.80;99.90
52965;DHT22;42923;53.220;6.528;2022-08-18T08:16:25;19.80;99.90
52965;DHT22;42923;53.220;6.528;2022-08-18T08:22:00;20.10;99.90
52965;DHT22;42923;53.220;6.528;2022-08-18T08:27:23;20.20;99.90
52965;DHT22;42923;53.220;6.528;2022-08-18T08:30:09;20.20;99.90
52965;DHT22;42923;53.220;6.528;2022-08-18T08:32:50;20.20;99.90
52965;DHT22;42923;53.220;6.528;2022-08-18T08:35:40;20.10;99.90
52965;DHT22;42923;53.220;6.528;2022-08-18T08:38:11;20.20;99.90
52965;DHT22;42923;53.220;6.528;2022-08-18T08:43:29;20.30;99.90
52965;DHT22;42923;53.220;6.528;2022-08-18T08:46:10;20.40;99.90
52965;DHT22;42923;53.220;6.528;2022-08-18T08:48:44;20.40;99.90
52965;DHT22;42923;53.220;6.528;2022-08-18T08:53:53;20.30;99.90
52965;DHT22;42923;53.220;6.528;2022-08-18T08:56:25;20.20;99.90
52965;DHT22;42923;53.220;6.528;2022-08-18T08:59:09;20.20;99.90
52965;DHT22;42923;53.220;6.528;2022-08-18T09:04:43;20.10;99.90
52965;DHT22;42923;53.220;6.528;2022-08-18T09:10:40;20.00;99.90
52965;DHT22;42923;53.220;6.528;2022-08-18T09:16:35;19.90;99.90
52965;DHT22;42923;53.220;6.528;2022-08-18T09:19:28;19.90;99.90
52965;DHT22;42923;53.220;6.528;2022-08-18T09:22:08;19.90;99.90
52965;DHT22;42923;53.220;6.528;2022-08-18T09:24:45;19.80;99.90
52965;DHT22;42923;53.220;6.528;2022-08-18T09:27:14;19.80;99.90
52965;DHT22;42923;53.220;6.528;2022-08-18T09:29:55;19.80;99.90
52965;DHT22;42923;53.220;6.528;2022-08-18T09:40:16;20.20;99.90
52965;DHT22;42923;53.220;6.528;2022-08-18T09:45:57;20.60;99.90
52965;DHT22;42923;53.220;6.528;2022-08-18T10:10:50;21.30;99.90
52965;DHT22;42923;53.220;6.528;2022-08-18T10:13:24;21.20;99.90
52965;DHT22;42923;53.220;6.528;2022-08-18T10:24:32;21.00;99.90
52965;DHT22;42923;53.220;6.528;2022-08-18T10:27:00;20.80;99.90
52965;DHT22;42923;53.220;6.528;2022-08-18T10:34:42;20.70;99.90
52965;DHT22;42923;53.220;6.528;2022-08-18T10:39:53;20.70;99.90
52965;DHT22;42923;53.220;6.528;2022-08-18T10:42:26;20.80;99.90
52965;DHT22;42923;53.220;6.528;2022-08-18T10:50:56;20.70;99.90
52965;DHT22;42923;53.220;6.528;2022-08-18T10:56:08;20.60;99.90
52965;DHT22;42923;53.220;6.528;2022-08-18T11:01:37;20.70;99.90
52965;DHT22;42923;53.220;6.528;2022-08-18T11:04:09;20.70;99.90
52965;DHT22;42923;53.220;6.528;2022-08-18T11:06:46;20.60;99.90
52965;DHT22;42923;53.220;6.528;2022-08-18T11:09:12;20.60;99.90
52965;DHT22;42923;53.220;6.528;2022-08-18T11:11:42;20.50;99.90
52965;DHT22;42923;53.220;6.528;2022-08-18T11:19:52;20.60;99.90
52965;DHT22;42923;53.220;6.528;2022-08-18T11:22:25;20.80;99.90
52965;DHT22;42923;53.220;6.528;2022-08-18T11:24:51;21.10;99.90
52965;DHT22;42923;53.220;6.528;2022-08-18T11:27:20;21.50;99.90
52965;DHT22;42923;53.220;6.528;2022-08-18T11:29:46;21.80;99.90
52965;DHT22;42923;53.220;6.528;2022-08-18T11:32:31;22.10;99.90
52965;DHT22;42923;53.220;6.528;2022-08-18T11:37:28;22.70;99.90
52965;DHT22;42923;53.220;6.528;2022-08-18T11:39:59;22.80;99.90
52965;DHT22;42923;53.220;6.528;2022-08-18T11:42:33;22.90;99.90
52965;DHT22;42923;53.220;6.528;2022-08-18T11:45:19;22.80;99.90
52965;DHT22;42923;53.220;6.528;2022-08-18T11:53:40;22.70;99.90
52965;DHT22;42923;53.220;6.528;2022-08-18T12:06:54;23.40;99.90
52965;DHT22;42923;53.220;6.528;2022-08-18T12:12:23;24.10;99.90
52965;DHT22;42923;53.220;6.528;2022-08-18T12:14:57;24.30;99.90
52965;DHT22;42923;53.220;6.528;2022-08-18T12:17:25;24.20;99.90
52965;DHT22;42923;53.220;6.528;2022-08-18T12:19:51;24.10;99.90
52965;DHT22;42923;53.220;6.528;2022-08-18T12:22:23;24.00;99.90
52965;DHT22;42923;53.220;6.528;2022-08-18T12:24:50;23.90;99.90
52965;DHT22;42923;53.220;6.528;2022-08-18T12:27:20;24.30;99.90
52965;DHT22;42923;53.220;6.528;2022-08-18T12:29:46;24.50;99.90
52965;DHT22;42923;53.220;6.528;2022-08-18T12:32:12;24.70;99.90
52965;DHT22;42923;53.220;6.528;2022-08-18T12:34:38;24.60;99.90
52965;DHT22;42923;53.220;6.528;2022-08-18T12:37:07;24.50;99.90
52965;DHT22;42923;53.220;6.528;2022-08-18T12:39:34;24.30;99.90
52965;DHT22;42923;53.220;6.528;2022-08-18T12:42:00;24.30;99.90
52965;DHT22;42923;53.220;6.528;2022-08-18T12:44:27;24.60;99.90
52965;DHT22;42923;53.220;6.528;2022-08-18T12:46:53;24.90;99.90
52965;DHT22;42923;53.220;6.528;2022-08-18T12:49:22;25.10;99.90
52965;DHT22;42923;53.220;6.528;2022-08-18T12:51:49;25.40;99.90
52965;DHT22;42923;53.220;6.528;2022-08-18T12:54:16;25.70;99.90
52965;DHT22;42923;53.220;6.528;2022-08-18T12:56:42;25.70;99.90
52965;DHT22;42923;53.220;6.528;2022-08-18T12:59:09;25.70;99.90
52965;DHT22;42923;53.220;6.528;2022-08-18T13:01:37;26.20;99.90
52965;DHT22;42923;53.220;6.528;2022-08-18T13:04:03;26.80;99.90
52965;DHT22;42923;53.220;6.528;2022-08-18T13:06:31;27.10;99.90
52965;DHT22;42923;53.220;6.528;2022-08-18T13:08:58;27.10;99.90
52965;DHT22;42923;53.220;6.528;2022-08-18T13:11:24;26.80;99.90
52965;DHT22;42923;53.220;6.528;2022-08-18T13:13:53;26.50;99.90
52965;DHT22;42923;53.220;6.528;2022-08-18T13:16:19;26.20;99.90
52965;DHT22;42923;53.220;6.528;2022-08-18T13:18:45;25.90;99.90
52965;DHT22;42923;53.220;6.528;2022-08-18T13:21:13;25.70;99.90
52965;DHT22;42923;53.220;6.528;2022-08-18T13:23:40;25.60;99.90
52965;DHT22;42923;53.220;6.528;2022-08-18T13:26:08;25.90;99.90
52965;DHT22;42923;53.220;6.528;2022-08-18T13:28:37;26.40;99.90
52965;DHT22;42923;53.220;6.528;2022-08-18T13:31:05;27.00;99.90
52965;DHT22;42923;53.220;6.528;2022-08-18T13:33:31;27.30;99.90
52965;DHT22;42923;53.220;6.528;2022-08-18T13:35:57;27.30;99.90
52965;DHT22;42923;53.220;6.528;2022-08-18T13:38:23;27.30;99.90
52965;DHT22;42923;53.220;6.528;2022-08-18T13:40:50;27.50;99.90
52965;DHT22;42923;53.220;6.528;2022-08-18T13:43:21;27.60;99.90
52965;DHT22;42923;53.220;6.528;2022-08-18T13:45:47;27.90;99.90
52965;DHT22;42923;53.220;6.528;2022-08-18T13:48:15;27.80;99.90
52965;DHT22;42923;53.220;6.528;2022-08-18T13:50:42;27.70;99.90
52965;DHT22;42923;53.220;6.528;2022-08-18T13:53:16;27.80;99.90
52965;DHT22;42923;53.220;6.528;2022-08-18T13:55:44;28.00;99.90
52965;DHT22;42923;53.220;6.528;2022-08-18T13:58:11;28.40;99.90
52965;DHT22;42923;53.220;6.528;2022-08-18T14:00:38;28.80;99.90
52965;DHT22;42923;53.220;6.528;2022-08-18T14:03:04;29.00;99.90
52965;DHT22;42923;53.220;6.528;2022-08-18T14:05:31;28.80;99.90
52965;DHT22;42923;53.220;6.528;2022-08-18T14:07:58;28.40;99.90
52965;DHT22;42923;53.220;6.528;2022-08-18T14:10:24;28.10;99.90
52965;DHT22;42923;53.220;6.528;2022-08-18T14:12:55;28.40;99.90
52965;DHT22;42923;53.220;6.528;2022-08-18T14:15:22;28.60;99.90
52965;DHT22;42923;53.220;6.528;2022-08-18T14:17:48;28.90;99.90
52965;DHT22;42923;53.220;6.528;2022-08-18T14:20:15;28.80;99.90
52965;DHT22;42923;53.220;6.528;2022-08-18T14:23:01;28.40;99.90
52965;DHT22;42923;53.220;6.528;2022-08-18T14:25:46;27.80;99.90
52965;DHT22;42923;53.220;6.528;2022-08-18T14:28:32;27.80;99.90
52965;DHT22;42923;53.220;6.528;2022-08-18T14:30:59;28.20;99.90
52965;DHT22;42923;53.220;6.528;2022-08-18T14:33:27;28.80;99.90
52965;DHT22;42923;53.220;6.528;2022-08-18T14:35:54;29.40;99.90
52965;DHT22;42923;53.220;6.528;2022-08-18T14:38:20;29.70;94.80
52965;DHT22;42923;53.220;6.528;2022-08-18T14:40:46;29.40;93.00
52965;DHT22;42923;53.220;6.528;2022-08-18T14:43:15;28.90;92.90
52965;DHT22;42923;53.220;6.528;2022-08-18T14:45:43;28.50;96.60
52965;DHT22;42923;53.220;6.528;2022-08-18T14:48:17;28.50;99.90
52965;DHT22;42923;53.220;6.528;2022-08-18T14:50:46;28.50;97.20
52965;DHT22;42923;53.220;6.528;2022-08-18T14:53:19;28.30;97.80
52965;DHT22;42923;53.220;6.528;2022-08-18T14:55:46;28.30;98.50
52965;DHT22;42923;53.220;6.528;2022-08-18T14:58:16;28.40;98.80
52965;DHT22;42923;53.220;6.528;2022-08-18T15:00:41;28.60;96.70
52965;DHT22;42923;53.220;6.528;2022-08-18T15:03:07;28.50;94.40
52965;DHT22;42923;53.220;6.528;2022-08-18T15:05:33;28.10;96.20
52965;DHT22;42923;53.220;6.528;2022-08-18T15:07:59;27.50;98.10
52965;DHT22;42923;53.220;6.528;2022-08-18T15:10:28;27.00;99.90
52965;DHT22;42923;53.220;6.528;2022-08-18T15:12:55;26.60;99.90
52965;DHT22;42923;53.220;6.528;2022-08-18T15:15:22;26.20;99.90
52965;DHT22;42923;53.220;6.528;2022-08-18T15:17:50;26.00;99.90
52965;DHT22;42923;53.220;6.528;2022-08-18T15:20:16;25.90;99.90
52965;DHT22;42923;53.220;6.528;2022-08-18T15:22:43;25.80;99.90
52965;DHT22;42923;53.220;6.528;2022-08-18T15:25:27;25.70;99.90
52965;DHT22;42923;53.220;6.528;2022-08-18T15:28:15;25.40;99.90
52965;DHT22;42923;53.220;6.528;2022-08-18T15:30:46;25.20;99.90
52965;DHT22;42923;53.220;6.528;2022-08-18T15:33:12;25.10;99.90
52965;DHT22;42923;53.220;6.528;2022-08-18T15:35:41;24.90;99.90
52965;DHT22;42923;53.220;6.528;2022-08-18T15:38:08;24.70;99.90
52965;DHT22;42923;53.220;6.528;2022-08-18T15:40:37;24.50;99.90
52965;DHT22;42923;53.220;6.528;2022-08-18T15:43:06;24.30;99.90
52965;DHT22;42923;53.220;6.528;2022-08-18T15:45:37;24.10;99.90
52965;DHT22;42923;53.220;6.528;2022-08-18T15:48:05;23.90;99.90
52965;DHT22;42923;53.220;6.528;2022-08-18T15:50:31;23.70;99.90
52965;DHT22;42923;53.220;6.528;2022-08-18T15:53:00;23.50;99.90
52965;DHT22;42923;53.220;6.528;2022-08-18T15:55:29;23.30;99.90
52965;DHT22;42923;53.220;6.528;2022-08-18T15:57:56;23.10;99.90
52965;DHT22;42923;53.220;6.528;2022-08-18T16:00:22;23.00;99.90
52965;DHT22;42923;53.220;6.528;2022-08-18T16:02:50;22.80;99.90
52965;DHT22;42923;53.220;6.528;2022-08-18T16:05:18;22.70;99.90
52965;DHT22;42923;53.220;6.528;2022-08-18T16:07:48;22.50;99.90
52965;DHT22;42923;53.220;6.528;2022-08-18T16:10:16;22.40;99.90
52965;DHT22;42923;53.220;6.528;2022-08-18T16:12:42;22.30;99.90
52965;DHT22;42923;53.220;6.528;2022-08-18T16:15:08;22.20;99.90
52965;DHT22;42923;53.220;6.528;2022-08-18T16:17:34;22.10;99.90
52965;DHT22;42923;53.220;6.528;2022-08-18T16:20:00;22.00;99.90
52965;DHT22;42923;53.220;6.528;2022-08-18T16:22:29;21.90;99.90
52965;DHT22;42923;53.220;6.528;2022-08-18T16:24:56;21.90;99.90
52965;DHT22;42923;53.220;6.528;2022-08-18T16:27:22;21.90;99.90
52965;DHT22;42923;53.220;6.528;2022-08-18T16:29:48;21.80;99.90
52965;DHT22;42923;53.220;6.528;2022-08-18T16:32:14;21.70;99.90
52965;DHT22;42923;53.220;6.528;2022-08-18T16:34:40;21.70;99.90
52965;DHT22;42923;53.220;6.528;2022-08-18T16:37:06;21.60;99.90
52965;DHT22;42923;53.220;6.528;2022-08-18T16:39:35;21.60;99.90
52965;DHT22;42923;53.220;6.528;2022-08-18T16:42:01;21.50;99.90
52965;DHT22;42923;53.220;6.528;2022-08-18T16:44:29;21.50;99.90
52965;DHT22;42923;53.220;6.528;2022-08-18T16:46:58;21.40;99.90
52965;DHT22;42923;53.220;6.528;2022-08-18T16:49:26;21.30;99.90
52965;DHT22;42923;53.220;6.528;2022-08-18T16:51:52;21.30;99.90
52965;DHT22;42923;53.220;6.528;2022-08-18T16:54:19;21.20;99.90
52965;DHT22;42923;53.220;6.528;2022-08-18T16:56:44;21.20;99.90
52965;DHT22;42923;53.220;6.528;2022-08-18T16:59:10;21.10;99.90
52965;DHT22;42923;53.220;6.528;2022-08-18T17:01:54;21.10;99.90
52965;DHT22;42923;53.220;6.528;2022-08-18T17:04:39;21.10;99.90
52965;DHT22;42923;53.220;6.528;2022-08-18T17:07:05;21.10;99.90
52965;DHT22;42923;53.220;6.528;2022-08-18T17:09:33;21.00;99.90
52965;DHT22;42923;53.220;6.528;2022-08-18T17:12:00;20.90;99.90
52965;DHT22;42923;53.220;6.528;2022-08-18T17:14:27;20.90;99.90
52965;DHT22;42923;53.220;6.528;2022-08-18T17:16:55;20.80;99.90
52965;DHT22;42923;53.220;6.528;2022-08-18T17:19:26;20.70;99.90
52965;DHT22;42923;53.220;6.528;2022-08-18T17:21:54;20.70;99.90
52965;DHT22;42923;53.220;6.528;2022-08-18T17:24:20;20.60;99.90
52965;DHT22;42923;53.220;6.528;2022-08-18T17:26:57;20.60;99.90
52965;DHT22;42923;53.220;6.528;2022-08-18T17:29:32;20.50;99.90
52965;DHT22;42923;53.220;6.528;2022-08-18T17:32:02;20.40;99.90
52965;DHT22;42923;53.220;6.528;2022-08-18T17:34:36;20.40;99.90
52965;DHT22;42923;53.220;6.528;2022-08-18T17:37:04;20.40;99.90
52965;DHT22;42923;53.220;6.528;2022-08-18T17:39:35;20.30;99.90
52965;DHT22;42923;53.220;6.528;2022-08-18T17:42:03;20.20;99.90
52965;DHT22;42923;53.220;6.528;2022-08-18T17:44:47;20.20;99.90
52965;DHT22;42923;53.220;6.528;2022-08-18T17:49:56;20.10;99.90
52965;DHT22;42923;53.220;6.528;2022-08-18T17:52:44;20.00;99.90
52965;DHT22;42923;53.220;6.528;2022-08-18T17:55:15;19.90;99.90
52965;DHT22;42923;53.220;6.528;2022-08-18T17:58:05;19.90;99.90
52965;DHT22;42923;53.220;6.528;2022-08-18T18:00:34;19.80;99.90
52965;DHT22;42923;53.220;6.528;2022-08-18T18:02:59;19.80;99.90
52965;DHT22;42923;53.220;6.528;2022-08-18T18:05:45;19.70;99.90
52965;DHT22;42923;53.220;6.528;2022-08-18T18:08:11;19.60;99.90
52965;DHT22;42923;53.220;6.528;2022-08-18T18:10:46;19.60;99.90
52965;DHT22;42923;53.220;6.528;2022-08-18T18:13:24;19.60;99.90
52965;DHT22;42923;53.220;6.528;2022-08-18T18:15:55;19.50;99.90
52965;DHT22;42923;53.220;6.528;2022-08-18T18:18:37;19.40;99.90
52965;DHT22;42923;53.220;6.528;2022-08-18T18:21:17;19.30;99.90
52965;DHT22;42923;53.220;6.528;2022-08-18T18:23:49;19.20;99.90
52965;DHT22;42923;53.220;6.528;2022-08-18T18:26:33;19.10;99.90
52965;DHT22;42923;53.220;6.528;2022-08-18T18:29:13;19.10;99.90
52965;DHT22;42923;53.220;6.528;2022-08-18T18:31:41;19.00;99.90
52965;DHT22;42923;53.220;6.528;2022-08-18T18:34:25;18.90;99.90